Time;durP1;ratioP1;P1;durP2;ratioP2;P2;SDS_P1;SDS_P2;PMS_P1;PMS_P2;Temp;Humidity;BMP_temperature;BMP_pressure;BME280_temperature;BME280_humidity;BME280_pressure;Samples;Min_cycle;Max_cycle;Signal;HPM_P1;HPM_P2
2023/10/17 00:01:34;;;;;;;5.60;5.10;;;;;;;6.26;100.00;96653.09;5063083;28;20511;-57
2023/10/17 00:04:09;;;;;;;5.93;4.83;;;;;;;6.25;100.00;96648.78;5068058;28;20222;-58
2023/10/17 00:06:37;;;;;;;5.73;5.23;;;;;;;6.22;100.00;96647.25;5086885;28;20242;-54
2023/10/17 00:09:07;;;;;;;5.27;4.80;;;;;;;6.16;100.00;96642.47;5082890;28;20264;-57
2023/10/17 00:11:46;;;;;;;5.80;4.80;;;;;;;6.22;100.00;96639.38;5063250;28;20345;-56
2023/10/17 00:14:15;;;;;;;5.70;4.77;;;;;;;6.12;100.00;96640.19;5063018;28;20221;-57
2023/10/17 00:16:43;;;;;;;5.50;5.00;;;;;;;6.07;100.00;96643.16;5059625;28;20206;-56
2023/10/17 00:19:10;;;;;;;5.37;4.87;;;;;;;6.00;100.00;96636.69;5061808;28;20666;-56
2023/10/17 00:21:37;;;;;;;5.23;4.83;;;;;;;5.99;100.00;96635.84;5063320;28;20202;-56
2023/10/17 00:24:08;;;;;;;6.00;5.50;;;;;;;6.04;100.00;96637.28;5063218;28;20227;-56
2023/10/17 00:26:37;;;;;;;5.53;5.13;;;;;;;6.01;100.00;96643.63;5060509;28;20298;-56
2023/10/17 00:29:05;;;;;;;6.23;5.63;;;;;;;5.97;100.00;96650.03;5063622;28;20638;-57
2023/10/17 00:31:33;;;;;;;5.60;5.10;;;;;;;5.96;100.00;96646.56;5063671;28;20198;-57
2023/10/17 00:34:01;;;;;;;6.00;5.40;;;;;;;5.99;100.00;96651.59;5062927;28;20199;-57
2023/10/17 00:36:27;;;;;;;5.70;5.13;;;;;;;5.97;100.00;96650.88;5061783;28;20210;-56
2023/10/17 00:38:59;;;;;;;6.80;5.30;;;;;;;5.97;100.00;96637.75;5061723;28;20652;-56
2023/10/17 00:41:30;;;;;;;6.50;5.80;;;;;;;6.00;100.00;96650.66;5061930;28;20282;-56
2023/10/17 00:43:57;;;;;;;6.97;6.20;;;;;;;5.91;100.00;96651.34;5062360;28;20301;-56
2023/10/17 00:46:24;;;;;;;5.80;5.20;;;;;;;5.95;100.00;96644.88;5062268;28;20202;-58
2023/10/17 00:48:51;;;;;;;6.13;5.63;;;;;;;5.95;100.00;96650.13;5061441;28;20217;-58
2023/10/17 00:51:21;;;;;;;6.23;5.60;;;;;;;5.97;100.00;96640.38;5062513;28;20297;-55
2023/10/17 00:53:47;;;;;;;6.63;6.03;;;;;;;5.90;100.00;96640.94;5062835;28;20210;-56
2023/10/17 00:56:14;;;;;;;7.23;5.70;;;;;;;5.94;100.00;96631.91;5062143;28;20202;-57
2023/10/17 00:58:42;;;;;;;7.07;5.97;;;;;;;5.92;100.00;96629.38;5062649;28;20199;-57
2023/10/17 01:01:14;;;;;;;7.40;6.17;;;;;;;5.86;100.00;96629.84;5062462;28;20210;-57
2023/10/17 01:03:43;;;;;;;6.73;6.03;;;;;;;5.86;100.00;96635.09;5062706;28;20217;-57
2023/10/17 01:06:21;;;;;;;6.50;5.90;;;;;;;5.86;100.00;96637.72;5065142;28;20199;-56
2023/10/17 01:08:50;;;;;;;6.43;5.90;;;;;;;5.86;100.00;96632.47;5068463;28;20194;-56
2023/10/17 01:11:20;;;;;;;7.27;6.33;;;;;;;5.83;100.00;96626.59;5066457;28;20266;-57
2023/10/17 01:13:47;;;;;;;7.27;6.20;;;;;;;5.87;100.00;96628.91;5069662;28;20206;-56
2023/10/17 01:16:16;;;;;;;7.07;6.43;;;;;;;5.87;100.00;96630.69;5069085;28;20210;-56
2023/10/17 01:18:47;;;;;;;7.20;6.30;;;;;;;5.85;100.00;96629.91;5062374;28;20611;-57
2023/10/17 01:21:17;;;;;;;7.13;6.53;;;;;;;5.86;100.00;96627.22;5062551;28;20555;-56
2023/10/17 01:23:45;;;;;;;7.60;6.63;;;;;;;5.86;100.00;96621.97;5062666;28;20222;-55
2023/10/17 01:26:20;;;;;;;7.33;6.33;;;;;;;5.87;100.00;96617.56;5080767;28;20183;-57
2023/10/17 01:28:49;;;;;;;8.07;7.27;;;;;;;5.80;100.00;96616.31;5080363;28;20187;-55
2023/10/17 01:31:22;;;;;;;7.17;6.47;;;;;;;5.80;100.00;96609.28;5078971;28;20218;-56
2023/10/17 01:33:49;;;;;;;7.37;6.77;;;;;;;5.78;100.00;96616.41;5074620;28;20689;-56
2023/10/17 01:36:17;;;;;;;6.97;6.33;;;;;;;5.80;100.00;96613.69;5061580;28;20535;-57
2023/10/17 01:38:45;;;;;;;8.60;6.63;;;;;;;5.75;100.00;96616.66;5062722;28;20195;-57
2023/10/17 01:41:15;;;;;;;7.43;6.73;;;;;;;5.76;100.00;96610.47;5062679;28;20588;-56
2023/10/17 01:43:45;;;;;;;8.03;7.23;;;;;;;5.72;100.00;96611.63;5062666;28;20230;-55
2023/10/17 01:46:15;;;;;;;8.20;7.40;;;;;;;5.72;100.00;96616.88;5061740;28;20203;-56
2023/10/17 01:48:44;;;;;;;8.83;7.33;;;;;;;5.70;100.00;96607.47;5062062;28;20195;-57
2023/10/17 01:51:12;;;;;;;8.03;7.23;;;;;;;5.64;100.00;96603.50;5061900;28;20213;-56
2023/10/17 01:53:39;;;;;;;8.20;7.27;;;;;;;5.68;100.00;96615.44;5060607;28;20194;-58
2023/10/17 01:56:13;;;;;;;8.90;8.10;;;;;;;5.68;100.00;96614.59;5060156;28;20699;-58
2023/10/17 01:58:42;;;;;;;8.63;7.73;;;;;;;5.63;100.00;96612.34;5061668;28;20288;-57
2023/10/17 02:01:12;;;;;;;8.73;7.23;;;;;;;5.64;100.00;96607.91;5061397;28;20211;-57
2023/10/17 02:03:39;;;;;;;8.63;7.80;;;;;;;5.63;100.00;96607.09;5060393;28;20206;-57
2023/10/17 02:06:13;;;;;;;9.13;7.87;;;;;;;5.60;100.00;96609.91;5061060;28;20225;-58
2023/10/17 02:08:41;;;;;;;8.33;7.47;;;;;;;5.58;100.00;96609.19;5062774;28;20206;-57
2023/10/17 02:11:12;;;;;;;8.80;8.00;;;;;;;5.57;100.00;96611.94;5060823;28;20237;-57
2023/10/17 02:13:45;;;;;;;8.53;7.73;;;;;;;5.60;100.00;96616.97;5061284;28;20206;-57
2023/10/17 02:16:12;;;;;;;13.57;8.83;;;;;;;5.49;100.00;96607.28;5060648;28;20199;-56
2023/10/17 02:18:38;;;;;;;8.93;8.03;;;;;;;5.53;100.00;96613.13;5061790;28;20218;-57
2023/10/17 02:21:05;;;;;;;9.40;8.50;;;;;;;5.48;100.00;96609.06;5064944;28;20199;-58
2023/10/17 02:23:39;;;;;;;10.57;8.17;;;;;;;5.54;100.00;96607.75;5061020;28;20207;-58
2023/10/17 02:26:08;;;;;;;9.43;8.23;;;;;;;5.52;100.00;96609.66;5060869;28;20524;-58
2023/10/17 02:28:44;;;;;;;9.23;8.33;;;;;;;5.52;100.00;96612.28;5061202;28;20295;-58
2023/10/17 02:31:13;;;;;;;9.10;8.23;;;;;;;5.51;100.00;96611.44;5063355;28;20252;-58
2023/10/17 02:33:41;;;;;;;8.63;7.90;;;;;;;5.48;100.00;96609.06;5065047;28;20222;-58
2023/10/17 02:36:12;;;;;;;9.63;8.60;;;;;;;5.46;100.00;96610.94;5063987;28;20204;-57
2023/10/17 02:38:39;;;;;;;9.70;8.87;;;;;;;5.48;100.00;96606.44;5064998;28;20669;-56
2023/10/17 02:41:09;;;;;;;9.23;8.33;;;;;;;5.44;100.00;96607.59;5064825;28;20203;-57
2023/10/17 02:43:40;;;;;;;10.37;9.37;;;;;;;5.36;100.00;96609.94;5064880;28;20208;-58
2023/10/17 02:46:07;;;;;;;9.67;8.67;;;;;;;5.38;100.00;96612.47;5064606;28;20195;-58
2023/10/17 02:48:38;;;;;;;10.70;8.80;;;;;;;5.35;100.00;96616.13;5064213;28;20218;-57
2023/10/17 02:51:11;;;;;;;9.73;8.80;;;;;;;5.33;100.00;96611.94;5063989;28;20292;-58
2023/10/17 02:53:43;;;;;;;9.53;8.63;;;;;;;5.28;100.00;96625.38;5058824;28;20672;-57
2023/10/17 02:56:19;;;;;;;9.93;8.93;;;;;;;5.23;100.00;96624.06;5064038;28;20570;-58
2023/10/17 02:58:48;;;;;;;10.80;9.47;;;;;;;5.30;100.00;96620.03;5063797;28;20229;-58
2023/10/17 03:01:15;;;;;;;10.47;9.37;;;;;;;5.21;100.00;96607.63;5066187;28;20301;-58
2023/10/17 03:03:43;;;;;;;9.53;8.50;;;;;;;5.15;100.00;96608.88;5065435;28;20206;-57
2023/10/17 03:06:15;;;;;;;9.97;9.07;;;;;;;5.18;100.00;96610.44;5063501;28;20210;-59
2023/10/17 03:08:42;;;;;;;9.87;8.87;;;;;;;5.21;100.00;96607.63;5063938;28;20210;-58
2023/10/17 03:11:15;;;;;;;9.47;8.57;;;;;;;5.20;100.00;96609.41;5063205;28;20253;-58
2023/10/17 03:13:43;;;;;;;11.03;8.83;;;;;;;5.30;100.00;96614.78;5063571;28;20658;-57
2023/10/17 03:16:23;;;;;;;12.13;10.57;;;;;;;5.23;100.00;96622.28;5063123;28;20784;-57
2023/10/17 03:18:51;;;;;;;10.40;9.43;;;;;;;5.25;100.00;96622.16;5063218;28;20648;-58
2023/10/17 03:21:20;;;;;;;10.90;9.80;;;;;;;5.22;100.00;96627.63;5062711;28;20658;-58
2023/10/17 03:23:49;;;;;;;12.07;9.87;;;;;;;5.12;100.00;96631.84;5063553;28;20205;-57
2023/10/17 03:26:18;;;;;;;11.10;10.00;;;;;;;5.15;100.00;96631.63;5063635;28;20226;-57
2023/10/17 03:28:46;;;;;;;11.57;9.97;;;;;;;5.21;100.00;96628.59;5063476;28;20202;-57
2023/10/17 03:31:20;;;;;;;10.70;9.70;;;;;;;5.21;100.00;96625.97;5063260;28;20210;-58
2023/10/17 03:33:50;;;;;;;10.77;9.67;;;;;;;5.13;100.00;96634.38;5063928;28;20272;-58
2023/10/17 03:39:18;;;;;;;10.57;9.43;;;;;;;5.24;100.00;96626.56;5063145;28;20223;-57
2023/10/17 03:41:45;;;;;;;10.97;9.97;;;;;;;5.06;100.00;96624.44;5063208;28;20206;-57
2023/10/17 03:44:15;;;;;;;14.37;11.83;;;;;;;5.09;100.00;96637.31;5063457;28;20210;-56
2023/10/17 03:46:46;;;;;;;15.13;12.07;;;;;;;5.09;100.00;96637.31;5063516;28;20211;-58
2023/10/17 03:49:17;;;;;;;13.17;10.13;;;;;;;5.05;100.00;96641.94;5064009;28;20195;-56
2023/10/17 03:51:52;;;;;;;11.10;10.00;;;;;;;5.09;100.00;96648.66;5063647;28;20203;-58
2023/10/17 03:54:22;;;;;;;10.97;9.87;;;;;;;5.11;100.00;96643.28;5063226;28;20206;-58
2023/10/17 03:56:56;;;;;;;11.57;10.37;;;;;;;5.01;100.00;96640.47;5061692;28;20840;-57
2023/10/17 03:59:31;;;;;;;11.33;10.20;;;;;;;5.12;100.00;96642.34;5063367;28;20261;-58
2023/10/17 04:01:58;;;;;;;14.93;10.33;;;;;;;5.12;100.00;96643.19;5061949;28;20230;-57
2023/10/17 04:04:35;;;;;;;11.37;10.30;;;;;;;5.12;100.00;96631.84;5063779;28;20230;-57
2023/10/17 04:07:06;;;;;;;11.80;10.70;;;;;;;5.10;100.00;96639.81;5062930;28;20195;-56
2023/10/17 04:09:38;;;;;;;10.83;9.73;;;;;;;5.11;100.00;96635.41;5063079;28;20226;-58
2023/10/17 04:12:08;;;;;;;11.27;10.00;;;;;;;5.09;100.00;96646.03;5063466;28;20223;-58
2023/10/17 04:14:43;;;;;;;11.10;9.93;;;;;;;5.03;100.00;96644.66;5063359;28;20226;-58
2023/10/17 04:17:14;;;;;;;11.77;10.40;;;;;;;5.01;100.00;96646.56;5063571;28;20296;-57
2023/10/17 04:19:41;;;;;;;11.93;10.73;;;;;;;5.08;100.00;96648.75;5062917;28;20218;-57
2023/10/17 04:22:15;;;;;;;11.77;10.57;;;;;;;4.99;100.00;96643.19;5061909;28;20226;-57
2023/10/17 04:24:45;;;;;;;11.00;9.90;;;;;;;4.99;100.00;96637.16;5062427;28;20215;-57
2023/10/17 04:27:22;;;;;;;12.00;10.80;;;;;;;5.00;100.00;96634.41;5062673;28;20209;-57
2023/10/17 04:29:51;;;;;;;13.30;11.90;;;;;;;4.95;100.00;96619.97;5061672;28;20199;-56
2023/10/17 04:32:19;;;;;;;11.77;10.67;;;;;;;4.94;100.00;96624.38;5062431;28;20466;-57
2023/10/17 04:34:46;;;;;;;13.10;11.63;;;;;;;4.87;100.00;96620.50;5062205;28;20674;-58
2023/10/17 04:37:16;;;;;;;13.97;11.13;;;;;;;4.92;100.00;96631.47;5063347;28;20232;-59
2023/10/17 04:39:49;;;;;;;12.50;11.20;;;;;;;4.94;100.00;96629.59;5078501;28;20191;-63
2023/10/17 04:42:25;;;;;;;11.67;10.43;;;;;;;4.91;100.00;96628.97;5086652;28;20254;-58
2023/10/17 04:44:52;;;;;;;12.83;11.17;;;;;;;4.92;100.00;96615.75;5079738;28;20202;-56
2023/10/17 04:47:30;;;;;;;13.23;11.70;;;;;;;4.95;100.00;96619.97;5074902;28;20678;-57
2023/10/17 04:49:56;;;;;;;13.00;11.13;;;;;;;4.86;100.00;96618.81;5065290;28;20222;-57
2023/10/17 04:52:29;;;;;;;12.80;11.47;;;;;;;4.87;100.00;96611.81;5064899;28;20221;-56
2023/10/17 04:55:01;;;;;;;12.63;11.40;;;;;;;4.81;100.00;96618.31;5064522;28;20190;-58
2023/10/17 04:57:54;;;;;;;12.80;11.50;;;;;;;4.78;100.00;96613.28;5066437;28;20206;-57
2023/10/17 05:00:25;;;;;;;12.23;11.10;;;;;;;4.80;100.00;96621.03;5066271;28;20203;-55
2023/10/17 05:03:04;;;;;;;13.80;12.40;;;;;;;4.87;100.00;96623.13;5064868;28;20198;-57
2023/10/17 05:08:32;;;;;;;12.33;11.13;;;;;;;4.88;100.00;96634.44;5070150;28;20217;-56
2023/10/17 06:17:07;;;;;;;15.90;13.57;;;;;;;4.91;100.00;96637.69;5065441;28;20272;-58
2023/10/17 06:19:33;;;;;;;15.47;13.87;;;;;;;5.05;100.00;96630.63;5064783;28;20253;-57
2023/10/17 06:24:46;;;;;;;16.30;14.60;;;;;;;5.35;100.00;96644.16;5051355;28;20218;-58
2023/10/17 06:33:05;;;;;;;20.90;16.13;;;;;;;5.59;100.00;96658.09;5003442;28;20201;-58
2023/10/17 06:35:31;;;;;;;18.93;15.27;;;;;;;5.76;100.00;96657.69;5056274;28;20209;-55
2023/10/17 06:37:59;;;;;;;18.27;16.33;;;;;;;5.84;100.00;96660.59;5066038;28;20207;-57
2023/10/17 06:40:32;;;;;;;19.03;16.67;;;;;;;5.97;100.00;96660.53;5066458;28;20256;-58
2023/10/17 06:42:59;;;;;;;22.70;18.30;;;;;;;6.04;100.00;96660.91;5067269;28;20202;-56
2023/10/17 06:45:27;;;;;;;22.03;18.57;;;;;;;5.94;100.00;96655.53;5065939;28;20230;-58
2023/10/17 06:47:58;;;;;;;22.57;19.10;;;;;;;5.93;100.00;96652.06;5065883;28;20203;-58
2023/10/17 06:53:11;;;;;;;26.27;18.77;;;;;;;6.20;100.00;96645.69;5066231;28;20201;-56
2023/10/17 06:55:43;;;;;;;22.90;19.07;;;;;;;6.24;100.00;96641.84;5070844;28;20642;-58
2023/10/17 06:58:14;;;;;;;22.23;19.50;;;;;;;6.29;100.00;96645.81;5079439;28;20191;-57
2023/10/17 07:00:43;;;;;;;23.17;18.80;;;;;;;6.35;100.00;96655.00;5088505;28;20187;-56
2023/10/17 07:03:13;;;;;;;22.53;19.13;;;;;;;6.42;100.00;96651.81;5074796;28;20206;-56
2023/10/17 07:05:39;;;;;;;23.87;19.70;;;;;;;6.47;100.00;96654.09;5065719;28;20234;-57
2023/10/17 07:08:13;;;;;;;23.33;19.60;;;;;;;6.45;100.00;96654.19;5066734;28;20198;-58
2023/10/17 07:10:41;;;;;;;24.80;19.53;;;;;;;6.48;100.00;96650.53;5064387;28;20194;-58
2023/10/17 07:13:49;;;;;;;22.33;19.37;;;;;;;6.54;100.00;96646.56;5063907;28;20198;-57
2023/10/17 07:16:18;;;;;;;24.77;20.30;;;;;;;6.54;100.00;96652.66;5063419;28;20202;-58
2023/10/17 07:18:51;;;;;;;25.13;19.83;;;;;;;6.52;100.00;96649.31;5064079;28;20199;-57
2023/10/17 07:21:22;;;;;;;28.23;20.47;;;;;;;6.56;100.00;96648.13;5063676;28;20290;-57
2023/10/17 07:23:53;;;;;;;25.83;21.00;;;;;;;6.54;100.00;96650.03;5064947;28;20203;-58
2023/10/17 07:26:35;;;;;;;24.73;19.17;;;;;;;6.51;100.00;96642.41;5063885;28;20234;-58
2023/10/17 07:29:05;;;;;;;24.77;20.43;;;;;;;6.48;100.00;96648.69;5063507;28;20195;-58
2023/10/17 07:31:33;;;;;;;25.03;21.10;;;;;;;6.51;100.00;96647.66;5064523;28;20195;-57
2023/10/17 07:34:16;;;;;;;27.07;20.73;;;;;;;6.48;100.00;96640.81;5064830;28;20264;-57
2023/10/17 07:36:43;;;;;;;24.70;19.77;;;;;;;6.62;100.00;96639.78;5065021;28;20204;-58
2023/10/17 07:39:16;;;;;;;21.60;18.93;;;;;;;6.71;100.00;96638.22;5065268;28;20198;-58
2023/10/17 07:41:52;;;;;;;23.63;20.53;;;;;;;6.78;100.00;96627.09;5064821;28;20271;-57
2023/10/17 07:44:21;;;;;;;25.60;20.43;;;;;;;6.74;100.00;96633.56;5063970;28;20202;-57
2023/10/17 07:46:51;;;;;;;23.37;19.57;;;;;;;6.83;100.00;96643.38;5065347;28;20287;-58
2023/10/17 07:49:25;;;;;;;24.70;19.63;;;;;;;6.85;100.00;96643.22;5065575;28;20301;-57
2023/10/17 07:51:52;;;;;;;22.33;19.30;;;;;;;6.90;100.00;96638.47;5065540;28;20209;-57
2023/10/17 07:54:18;;;;;;;22.57;19.07;;;;;;;6.85;100.00;96636.19;5064804;28;20244;-58
2023/10/17 07:56:50;;;;;;;23.13;19.03;;;;;;;6.88;100.00;96633.31;5064254;28;20199;-59
2023/10/17 07:59:18;;;;;;;25.00;19.23;;;;;;;6.93;100.00;96640.84;5063107;28;20226;-58
2023/10/17 08:01:45;;;;;;;22.17;19.17;;;;;;;6.93;100.00;96649.56;5063063;28;20202;-57
2023/10/17 08:04:18;;;;;;;21.60;19.30;;;;;;;6.94;100.00;96648.59;5062424;28;20205;-57
2023/10/17 08:06:50;;;;;;;18.80;16.80;;;;;;;7.05;100.00;96653.00;5062473;28;20215;-58
2023/10/17 08:09:24;;;;;;;24.60;18.60;;;;;;;7.02;100.00;96648.00;5062538;28;20198;-58
2023/10/17 08:11:52;;;;;;;21.13;18.83;;;;;;;7.08;100.00;96651.94;5063905;28;20238;-57
2023/10/17 08:14:22;;;;;;;21.40;19.10;;;;;;;7.00;100.00;96647.28;5064079;28;20202;-58
2023/10/17 08:16:50;;;;;;;24.10;20.30;;;;;;;6.94;100.00;96639.91;5063767;28;20199;-56
2023/10/17 08:19:22;;;;;;;24.10;21.43;;;;;;;7.01;100.00;96628.75;5062796;28;20281;-57
2023/10/17 08:21:59;;;;;;;23.33;20.83;;;;;;;7.07;100.00;96632.69;5062109;28;20218;-57
2023/10/17 08:24:33;;;;;;;27.00;20.13;;;;;;;7.05;100.00;96637.22;5062555;28;20203;-58
2023/10/17 08:29:48;;;;;;;23.13;20.63;;;;;;;7.03;100.00;96638.31;5057594;28;20527;-56
2023/10/17 08:32:38;;;;;;;23.33;20.57;;;;;;;6.98;100.00;96642.13;5062665;28;20691;-58
2023/10/17 08:35:09;;;;;;;25.90;20.20;;;;;;;6.86;100.00;96653.63;5062180;28;20683;-58
2023/10/17 08:37:43;;;;;;;23.87;20.67;;;;;;;6.85;100.00;96654.59;5063083;28;20205;-58
2023/10/17 08:40:29;;;;;;;25.47;20.37;;;;;;;6.92;100.00;96657.56;5062321;28;20658;-58
2023/10/17 08:42:56;;;;;;;21.30;19.10;;;;;;;6.89;100.00;96655.19;5062424;28;20225;-58
2023/10/17 08:45:26;;;;;;;23.70;20.90;;;;;;;6.91;100.00;96650.63;5062130;28;20211;-58
2023/10/17 08:47:54;;;;;;;24.80;20.50;;;;;;;6.90;100.00;96651.59;5062572;28;20226;-56
2023/10/17 08:50:23;;;;;;;20.90;18.70;;;;;;;6.96;100.00;96651.94;5062392;28;20225;-57
2023/10/17 08:52:50;;;;;;;25.47;20.43;;;;;;;7.12;100.00;96653.38;5062981;28;20214;-57
2023/10/17 08:55:17;;;;;;;23.67;20.90;;;;;;;7.20;100.00;96643.91;5063028;28;20550;-58
2023/10/17 08:57:46;;;;;;;26.00;21.10;;;;;;;7.19;100.00;96634.34;5062910;28;20396;-58
2023/10/17 09:03:01;;;;;;;24.70;21.30;;;;;;;7.12;100.00;96634.97;5044253;28;20201;-57
2023/10/17 09:05:29;;;;;;;26.03;19.97;;;;;;;7.19;100.00;96629.06;5061525;28;20694;-57
2023/10/17 09:08:02;;;;;;;22.73;19.13;;;;;;;7.13;100.00;96634.00;5062159;28;20293;-57
2023/10/17 09:10:36;;;;;;;22.83;20.27;;;;;;;7.19;100.00;96641.41;5061667;28;20210;-56
2023/10/17 09:13:52;;;;;;;22.50;19.30;;;;;;;7.14;100.00;96633.88;5062842;28;20206;-56
2023/10/17 09:16:10;;;;;;;22.60;20.20;;;;;;;7.37;100.00;96619.72;5077468;28;20202;-56
2023/10/17 09:18:42;;;;;;;21.50;18.07;;;;;;;7.38;100.00;96624.03;5085319;28;20191;-57
2023/10/17 09:21:13;;;;;;;21.60;17.20;;;;;;;7.52;100.00;96625.53;5079552;28;20995;-58
2023/10/17 09:23:41;;;;;;;21.17;18.17;;;;;;;7.65;100.00;96628.81;5062556;28;20583;-58
2023/10/17 09:26:10;;;;;;;22.13;19.07;;;;;;;7.69;100.00;96622.34;5062461;28;20218;-58
2023/10/17 09:28:37;;;;;;;22.07;19.60;;;;;;;7.78;100.00;96621.63;5065087;28;20279;-58
2023/10/17 09:31:09;;;;;;;22.30;19.30;;;;;;;7.78;100.00;96616.34;5063709;28;20218;-56
2023/10/17 09:33:37;;;;;;;24.13;20.20;;;;;;;7.75;100.00;96627.13;5062713;28;20203;-58
2023/10/17 09:36:05;;;;;;;23.27;18.77;;;;;;;7.89;100.00;96634.72;5063291;28;20510;-57
2023/10/17 09:38:34;;;;;;;23.80;19.70;;;;;;;7.82;100.00;96627.47;5061795;28;20195;-58
2023/10/17 09:41:01;;;;;;;23.17;19.33;;;;;;;7.76;100.00;96628.78;5061708;28;20769;-58
2023/10/17 09:43:28;;;;;;;22.50;18.37;;;;;;;7.96;100.00;96630.63;5062357;28;20235;-58
2023/10/17 09:45:58;;;;;;;21.40;18.63;;;;;;;8.01;100.00;96638.97;5060777;28;20577;-58
2023/10/17 09:48:33;;;;;;;21.87;18.33;;;;;;;8.00;100.00;96625.94;5061299;28;20214;-58
2023/10/17 09:51:01;;;;;;;22.07;18.63;;;;;;;8.04;100.00;96632.63;5060670;28;20222;-58
2023/10/17 09:53:33;;;;;;;22.53;19.07;;;;;;;8.01;100.00;96622.31;5061139;28;20209;-58
2023/10/17 09:56:03;;;;;;;20.63;18.43;;;;;;;7.95;100.00;96628.94;5061172;28;20194;-58
2023/10/17 09:58:33;;;;;;;20.33;17.73;;;;;;;7.95;100.00;96628.09;5061042;28;20199;-57
2023/10/17 10:01:05;;;;;;;20.67;18.47;;;;;;;7.99;100.00;96611.09;5059203;28;20282;-58
2023/10/17 10:03:32;;;;;;;21.07;18.17;;;;;;;8.05;100.00;96620.25;5060556;28;20198;-58
2023/10/17 10:06:19;;;;;;;20.97;17.07;;;;;;;8.12;100.00;96618.78;5060190;28;20223;-58
2023/10/17 10:08:47;;;;;;;20.70;18.50;;;;;;;8.18;100.00;96623.56;5061662;28;20203;-58
2023/10/17 10:11:14;;;;;;;20.67;18.50;;;;;;;8.21;100.00;96615.41;5061501;28;20357;-57
2023/10/17 10:14:02;;;;;;;23.17;18.07;;;;;;;8.34;100.00;96623.97;5061513;28;20206;-58
2023/10/17 10:16:47;;;;;;;20.37;16.93;;;;;;;8.35;100.00;96621.22;5060624;28;20627;-57
2023/10/17 10:19:16;;;;;;;20.40;17.20;;;;;;;8.33;100.00;96617.84;5061704;28;20266;-56
2023/10/17 10:21:54;;;;;;;19.67;17.53;;;;;;;8.52;100.00;96622.41;5060339;28;20640;-58
2023/10/17 10:24:26;;;;;;;21.17;18.20;;;;;;;8.59;100.00;96607.72;5060836;28;20206;-57
2023/10/17 10:27:18;;;;;;;20.17;17.57;;;;;;;8.64;100.00;96609.97;5061148;28;20238;-58
2023/10/17 10:29:47;;;;;;;22.10;17.13;;;;;;;8.86;100.00;96609.78;5061137;28;20609;-58
2023/10/17 10:32:32;;;;;;;20.37;17.73;;;;;;;8.94;100.00;96602.88;5062377;28;20209;-58
2023/10/17 10:34:59;;;;;;;20.03;17.93;;;;;;;8.96;100.00;96605.41;5060221;28;20207;-58
2023/10/17 10:37:26;;;;;;;21.70;17.93;;;;;;;9.09;100.00;96597.22;5061312;28;20196;-58
2023/10/17 10:40:16;;;;;;;18.83;16.83;;;;;;;9.19;100.00;96592.81;5060803;28;20199;-58
2023/10/17 10:42:44;;;;;;;21.67;17.47;;;;;;;9.16;100.00;96598.34;5060527;28;20935;-57
2023/10/17 10:45:35;;;;;;;18.93;17.03;;;;;;;9.10;100.00;96598.91;5060472;28;20214;-59
2023/10/17 10:48:04;;;;;;;22.80;17.37;;;;;;;9.08;100.00;96599.03;5060830;28;20226;-58
2023/10/17 10:50:33;;;;;;;19.83;17.70;;;;;;;9.05;100.00;96590.56;5061028;28;20656;-58
2023/10/17 10:53:01;;;;;;;19.30;17.33;;;;;;;9.19;100.00;96584.88;5064199;28;20598;-58
2023/10/17 10:55:30;;;;;;;20.43;17.43;;;;;;;9.50;100.00;96595.22;5064971;28;20194;-57
2023/10/17 10:57:59;;;;;;;19.83;17.57;;;;;;;9.72;100.00;96588.00;5065788;28;20306;-56
2023/10/17 11:00:27;;;;;;;22.40;18.37;;;;;;;9.73;100.00;96587.03;5064326;28;20210;-57
2023/10/17 11:02:56;;;;;;;19.60;17.50;;;;;;;10.00;100.00;96572.13;5064595;28;20203;-57
2023/10/17 11:05:23;;;;;;;19.33;17.13;;;;;;;10.77;100.00;96571.13;5063860;28;20294;-58
2023/10/17 11:08:00;;;;;;;20.40;18.30;;;;;;;11.10;100.00;96567.88;5063886;28;20234;-58
2023/10/17 11:10:26;;;;;;;18.73;16.83;;;;;;;11.45;100.00;96561.81;5064296;28;20199;-58
2023/10/17 11:12:58;;;;;;;17.60;15.83;;;;;;;11.98;97.34;96567.13;5063609;28;20241;-58
2023/10/17 11:15:27;;;;;;;18.57;16.57;;;;;;;12.41;94.53;96561.81;5063612;28;20207;-58
2023/10/17 11:18:06;;;;;;;17.00;15.43;;;;;;;12.85;93.81;96562.56;5064186;28;20198;-57
2023/10/17 11:20:33;;;;;;;17.53;15.83;;;;;;;12.79;89.27;96555.22;5063493;28;20206;-58
2023/10/17 11:23:00;;;;;;;18.42;15.73;;;;;;;12.55;93.27;96563.03;5064512;28;20560;-58
2023/10/17 11:25:27;;;;;;;17.15;15.38;;;;;;;12.19;93.20;96556.16;5063536;28;20626;-56
2023/10/17 11:28:00;;;;;;;16.83;15.20;;;;;;;12.41;92.12;96556.50;5062631;28;20223;-58
2023/10/17 11:30:34;;;;;;;16.98;15.38;;;;;;;12.25;93.31;96556.41;5063648;28;20203;-57
2023/10/17 11:33:02;;;;;;;16.97;15.37;;;;;;;12.30;92.72;96551.44;5068016;28;20183;-58
2023/10/17 11:35:30;;;;;;;18.23;16.42;;;;;;;12.54;93.65;96544.66;5085949;28;20208;-58
2023/10/17 11:37:58;;;;;;;17.80;16.10;;;;;;;12.03;94.19;96541.00;5083868;28;20197;-58
2023/10/17 11:40:38;;;;;;;16.97;15.17;;;;;;;12.16;93.61;96530.81;5074349;28;20539;-57
2023/10/17 11:43:16;;;;;;;18.00;16.17;;;;;;;12.18;93.19;96526.19;5067509;28;20202;-57
2023/10/17 11:45:43;;;;;;;17.20;15.50;;;;;;;12.20;94.08;96520.72;5068280;28;20279;-56
2023/10/17 11:48:29;;;;;;;16.60;14.93;;;;;;;12.36;95.42;96515.53;5063726;28;20222;-57
2023/10/17 11:51:12;;;;;;;17.63;15.73;;;;;;;12.04;92.72;96524.13;5063899;28;20195;-56
2023/10/17 11:54:03;;;;;;;17.77;15.63;;;;;;;12.33;94.94;96508.72;5063501;28;20190;-58
2023/10/17 11:56:30;;;;;;;17.43;15.63;;;;;;;12.36;91.77;96511.03;5062822;28;20268;-58
2023/10/17 11:59:01;;;;;;;17.73;15.93;;;;;;;12.28;94.97;96508.38;5062979;28;20237;-57
2023/10/17 12:01:27;;;;;;;17.37;15.70;;;;;;;12.59;92.78;96505.19;5063060;28;20191;-58
2023/10/17 12:03:56;;;;;;;17.43;15.73;;;;;;;12.58;91.99;96509.66;5061876;28;20199;-58
2023/10/17 12:06:26;;;;;;;17.23;15.53;;;;;;;12.51;95.46;96506.00;5062064;28;20211;-57
2023/10/17 12:08:53;;;;;;;17.20;15.50;;;;;;;12.70;90.16;96505.75;5062596;28;20627;-58
2023/10/17 12:11:19;;;;;;;17.23;15.63;;;;;;;12.49;93.95;96502.69;5061956;28;20250;-58
2023/10/17 12:13:47;;;;;;;17.43;15.70;;;;;;;12.59;92.68;96500.72;5063899;28;20563;-57
2023/10/17 12:16:17;;;;;;;17.57;15.97;;;;;;;12.51;93.47;96507.81;5062703;28;20211;-57
2023/10/17 12:18:44;;;;;;;16.77;15.17;;;;;;;12.59;95.74;96498.09;5062499;28;20222;-58
2023/10/17 12:21:14;;;;;;;17.50;15.57;;;;;;;12.72;94.70;96493.16;5062218;28;20207;-57
2023/10/17 12:23:41;;;;;;;16.40;14.90;;;;;;;12.77;93.96;96485.56;5062757;28;20203;-59
2023/10/17 12:26:13;;;;;;;17.97;16.17;;;;;;;12.72;91.07;96482.53;5062567;28;20210;-56
2023/10/17 12:28:42;;;;;;;16.27;14.70;;;;;;;12.74;93.31;96480.56;5062539;28;20196;-59
2023/10/17 12:31:09;;;;;;;16.63;14.97;;;;;;;12.64;92.11;96473.72;5061682;28;20210;-58
2023/10/17 12:33:37;;;;;;;18.17;15.80;;;;;;;12.66;95.19;96479.69;5062708;28;20222;-57
2023/10/17 12:36:04;;;;;;;16.43;14.83;;;;;;;12.70;94.39;96475.75;5062235;28;20266;-57
2023/10/17 12:38:34;;;;;;;17.13;15.47;;;;;;;12.82;93.36;96477.94;5062208;28;20199;-57
2023/10/17 12:41:00;;;;;;;16.50;14.80;;;;;;;12.93;93.24;96477.63;5061136;28;20210;-56
2023/10/17 12:43:27;;;;;;;16.93;15.17;;;;;;;13.10;92.15;96473.25;5062435;28;20221;-57
2023/10/17 12:45:55;;;;;;;16.33;14.73;;;;;;;13.13;93.42;96482.72;5061776;28;20284;-56
2023/10/17 12:48:22;;;;;;;16.90;15.13;;;;;;;13.24;91.00;96479.75;5061559;28;20230;-58
2023/10/17 12:50:51;;;;;;;15.70;14.20;;;;;;;13.18;89.71;96475.09;5061611;28;20206;-59
2023/10/17 12:53:17;;;;;;;16.57;14.97;;;;;;;13.24;92.65;96467.31;5062545;28;20195;-58
2023/10/17 12:55:44;;;;;;;16.00;14.10;;;;;;;13.24;91.02;96469.97;5062647;28;20218;-57
2023/10/17 12:58:11;;;;;;;17.33;15.57;;;;;;;12.92;90.29;96468.03;5064542;28;20211;-58
2023/10/17 13:00:38;;;;;;;16.65;14.95;;;;;;;13.25;93.45;96457.53;5063042;28;20210;-58
2023/10/17 13:03:06;;;;;;;15.93;14.32;;;;;;;13.40;90.64;96463.81;5061889;28;20218;-57
2023/10/17 13:05:33;;;;;;;16.37;14.23;;;;;;;13.63;89.73;96462.19;5061342;28;20207;-57
2023/10/17 13:08:01;;;;;;;16.65;14.30;;;;;;;13.68;90.80;96462.50;5061765;28;20226;-57